createdAt,value
2018-08-09T00:00:58.274Z,75.93
2018-08-09T00:03:26.105Z,76.50
2018-08-09T00:05:53.725Z,76.58
2018-08-09T00:08:21.446Z,76.26
2018-08-09T00:10:49.461Z,76.62
2018-08-09T00:13:17.094Z,76.21
2018-08-09T00:15:44.737Z,76.12
2018-08-09T00:18:12.650Z,76.19
2018-08-09T00:20:40.226Z,76.05
2018-08-09T00:23:07.869Z,76.01
2018-08-09T00:25:35.723Z,76.53
2018-08-09T00:28:03.427Z,76.13
2018-08-09T00:30:31.005Z,76.52
2018-08-09T00:32:58.864Z,76.14
2018-08-09T00:35:26.465Z,75.96
2018-08-09T00:37:54.097Z,76.37
2018-08-09T00:40:21.933Z,76.45
2018-08-09T00:42:49.549Z,76.24
2018-08-09T00:45:17.113Z,75.93
2018-08-09T00:47:45.030Z,76.25
2018-08-09T00:50:12.650Z,76.30
2018-08-09T00:52:40.236Z,75.96
2018-08-09T00:55:07.969Z,76.48
2018-08-09T00:57:35.585Z,76.51
2018-08-09T01:00:03.298Z,76.48
2018-08-09T01:02:31.084Z,76.35
2018-08-09T01:04:58.643Z,76.10
2018-08-09T01:07:26.267Z,76.56
2018-08-09T01:09:53.980Z,76.86
2018-08-09T01:12:21.519Z,76.59
2018-08-09T01:15:20.052Z,76.30
2018-08-09T01:17:47.659Z,76.86
2018-08-09T01:20:15.247Z,76.49
2018-08-09T01:22:43.144Z,76.79
2018-08-09T01:25:10.710Z,76.82
2018-08-09T01:27:38.297Z,76.78
2018-08-09T01:30:06.497Z,76.36
2018-08-09T01:32:34.091Z,76.86
2018-08-09T01:35:01.702Z,76.37
2018-08-09T01:37:29.577Z,76.69
2018-08-09T01:39:57.210Z,76.55
2018-08-09T01:42:36.301Z,76.69
2018-08-09T01:45:04.003Z,76.09
2018-08-09T01:47:31.585Z,76.52
2018-08-09T01:49:59.427Z,76.67
2018-08-09T01:52:27.038Z,76.37
2018-08-09T01:54:54.597Z,76.03
2018-08-09T01:57:22.253Z,76.46
2018-08-09T01:59:49.872Z,76.57
2018-08-09T02:02:17.491Z,76.04
2018-08-09T02:04:45.394Z,76.73
2018-08-09T02:07:13.018Z,76.10
2018-08-09T02:09:40.658Z,76.23
2018-08-09T02:12:08.595Z,76.81
2018-08-09T02:14:36.210Z,76.33
2018-08-09T02:17:03.978Z,76.95
2018-08-09T02:19:31.757Z,76.55
2018-08-09T02:21:59.412Z,76.75
2018-08-09T02:24:27.021Z,76.38
2018-08-09T02:26:55.144Z,76.87
2018-08-09T02:29:22.730Z,76.66
2018-08-09T02:31:50.561Z,76.76
2018-08-09T02:34:18.283Z,76.44
2018-08-09T02:36:45.822Z,76.87
2018-08-09T02:39:13.482Z,76.83
2018-08-09T02:41:41.293Z,76.75
2018-08-09T02:44:08.902Z,76.64
2018-08-09T02:46:36.605Z,76.71
2018-08-09T02:49:04.320Z,76.26
2018-08-09T02:51:31.983Z,76.47
2018-08-09T02:53:59.604Z,76.50
2018-08-09T02:56:27.363Z,76.93
2018-08-09T02:58:55.037Z,76.43
2018-08-09T03:01:22.666Z,76.39
2018-08-09T03:03:50.437Z,76.27
2018-08-09T03:06:18.204Z,76.22
2018-08-09T03:08:45.769Z,76.32
2018-08-09T03:11:13.491Z,76.41
2018-08-09T03:13:41.248Z,76.39
2018-08-09T03:16:08.720Z,76.87
2018-08-09T03:18:36.454Z,76.42
2018-08-09T03:22:06.940Z,76.71
2018-08-09T03:24:34.565Z,76.70
2018-08-09T03:27:01.958Z,76.33
2018-08-09T03:29:29.437Z,76.36
2018-08-09T03:31:57.289Z,76.38
2018-08-09T03:34:24.714Z,76.78
2018-08-09T03:36:52.155Z,76.53
2018-08-09T03:39:19.892Z,76.85
2018-08-09T03:41:47.326Z,76.42
2018-08-09T03:44:14.798Z,76.38
2018-08-09T03:46:42.421Z,76.76
2018-08-09T03:49:09.903Z,76.51
2018-08-09T03:51:37.403Z,76.94
2018-08-09T03:54:05.131Z,76.80
2018-08-09T03:56:32.611Z,76.29
2018-08-09T03:59:00.046Z,76.27
2018-08-09T04:01:27.850Z,76.62
2018-08-09T04:03:55.318Z,76.76
2018-08-09T04:06:23.133Z,76.44
2018-08-09T04:08:50.770Z,76.79
2018-08-09T04:11:18.229Z,76.50
2018-08-09T04:13:45.699Z,76.27
2018-08-09T04:16:13.352Z,76.30
2018-08-09T04:18:40.885Z,76.61
2018-08-09T04:21:08.389Z,76.44
2018-08-09T04:23:36.110Z,76.30
2018-08-09T04:26:03.613Z,76.56
2018-08-09T04:28:31.119Z,76.25
2018-08-09T04:30:58.806Z,76.69
2018-08-09T04:33:26.463Z,76.53
2018-08-09T04:35:53.924Z,76.42
2018-08-09T04:38:21.669Z,76.61
2018-08-09T04:40:49.101Z,76.17
2018-08-09T04:43:16.640Z,76.09
2018-08-09T04:45:44.383Z,76.29
2018-08-09T04:48:11.838Z,76.75
2018-08-09T04:50:39.294Z,76.66
2018-08-09T04:53:06.927Z,76.57
2018-08-09T04:55:34.418Z,76.36
2018-08-09T04:58:01.981Z,76.64
2018-08-09T05:00:29.633Z,76.44
2018-08-09T05:02:57.074Z,76.26
2018-08-09T05:05:24.556Z,76.67
2018-08-09T05:07:52.217Z,76.66
2018-08-09T05:10:19.706Z,76.35
2018-08-09T05:12:47.228Z,76.54
2018-08-09T05:15:14.832Z,76.62
2018-08-09T05:17:42.334Z,76.23
2018-08-09T05:20:09.845Z,76.43
2018-08-09T05:22:37.470Z,76.53
2018-08-09T05:25:05.326Z,75.95
2018-08-09T05:27:32.834Z,76.45
2018-08-09T05:30:00.331Z,75.82
2018-08-09T05:32:27.849Z,76.21
2018-08-09T05:35:02.116Z,76.24
2018-08-09T05:37:29.648Z,76.08
2018-08-09T05:39:57.174Z,76.28
2018-08-09T05:42:24.722Z,75.74
2018-08-09T05:44:52.247Z,76.08
2018-08-09T05:47:19.793Z,75.67
2018-08-09T05:49:47.472Z,76.00
2018-08-09T05:52:14.964Z,75.30
2018-08-09T05:54:42.434Z,75.22
2018-08-09T05:57:10.048Z,75.23
2018-08-09T05:59:37.546Z,75.62
2018-08-09T06:02:05.299Z,75.10
2018-08-09T06:04:32.970Z,74.87
2018-08-09T06:07:00.438Z,75.14
2018-08-09T06:09:27.973Z,75.12
2018-08-09T06:11:55.711Z,74.68
2018-08-09T06:14:23.236Z,74.59
2018-08-09T06:16:50.764Z,74.38
2018-08-09T06:19:18.457Z,74.74
2018-08-09T06:21:45.957Z,74.06
2018-08-09T06:24:13.425Z,74.18
2018-08-09T06:26:41.085Z,74.16
2018-08-09T06:29:08.582Z,74.06
2018-08-09T06:31:36.105Z,73.50
2018-08-09T06:34:03.858Z,73.92
2018-08-09T06:36:31.568Z,73.74
2018-08-09T06:38:59.119Z,73.68
2018-08-09T06:41:26.960Z,73.59
2018-08-09T06:43:54.420Z,73.52
2018-08-09T06:46:21.879Z,73.04
2018-08-09T06:48:49.642Z,72.94
2018-08-09T06:51:17.124Z,72.84
2018-08-09T06:53:44.545Z,72.62
2018-08-09T06:56:12.301Z,72.59
2018-08-09T06:58:39.790Z,72.67
2018-08-09T07:01:07.271Z,72.48
2018-08-09T07:03:35.023Z,72.75
2018-08-09T07:06:02.462Z,72.06
2018-08-09T07:08:29.905Z,72.09
2018-08-09T07:10:57.548Z,72.51
2018-08-09T07:13:25.230Z,71.83
2018-08-09T07:15:52.725Z,71.70
2018-08-09T07:18:20.346Z,71.50
2018-08-09T07:20:47.877Z,71.41
2018-08-09T07:23:15.320Z,71.02
2018-08-09T07:25:43.046Z,70.98
2018-08-09T07:28:10.518Z,70.87
2018-08-09T07:30:37.995Z,71.45
2018-08-09T07:33:05.751Z,70.96
2018-08-09T07:35:33.257Z,70.91
2018-08-09T07:38:00.956Z,70.80
2018-08-09T07:40:28.592Z,71.15
2018-08-09T07:42:56.050Z,70.90
2018-08-09T07:45:23.570Z,71.09
2018-08-09T07:47:51.311Z,71.40
2018-08-09T07:50:18.739Z,71.15
2018-08-09T07:52:46.223Z,71.10
2018-08-09T07:55:13.798Z,71.78
2018-08-09T07:57:41.225Z,71.29
2018-08-09T08:00:10.552Z,71.73
2018-08-09T08:02:38.163Z,71.57
2018-08-09T08:05:05.829Z,71.17
2018-08-09T08:07:33.380Z,71.05
2018-08-09T08:10:01.095Z,71.00
2018-08-09T08:12:28.518Z,71.33
2018-08-09T08:14:56.246Z,71.05
2018-08-09T08:17:23.739Z,70.57
2018-08-09T08:19:51.184Z,71.01
2018-08-09T08:22:18.756Z,71.05
2018-08-09T08:24:46.373Z,70.57
2018-08-09T08:27:13.847Z,70.84
2018-08-09T08:29:41.440Z,70.79
2018-08-09T08:32:09.076Z,70.17
2018-08-09T08:34:36.516Z,70.22
2018-08-09T08:37:04.122Z,69.46
2018-08-09T08:39:31.961Z,69.92
2018-08-09T08:41:59.418Z,69.81
2018-08-09T08:44:26.952Z,69.74
2018-08-09T08:46:54.625Z,69.77
2018-08-09T08:49:22.088Z,69.24
2018-08-09T08:51:49.497Z,69.12
2018-08-09T08:54:17.102Z,69.19
2018-08-09T08:56:44.705Z,69.40
2018-08-09T08:59:12.188Z,68.82
2018-08-09T09:01:39.866Z,69.14
2018-08-09T09:04:07.470Z,68.59
2018-08-09T09:06:34.919Z,68.28
2018-08-09T09:09:02.688Z,68.48
2018-08-09T09:11:30.403Z,68.25
2018-08-09T09:13:57.878Z,67.73
2018-08-09T09:16:25.559Z,68.15
2018-08-09T09:18:53.063Z,68.21
2018-08-09T09:21:20.549Z,67.85
2018-08-09T09:23:48.131Z,67.59
2018-08-09T09:26:15.771Z,67.90
2018-08-09T09:28:43.327Z,67.98
2018-08-09T09:31:11.064Z,67.78
2018-08-09T09:33:38.568Z,67.16
2018-08-09T09:36:06.016Z,66.97
2018-08-09T09:38:33.597Z,66.49
2018-08-09T09:41:01.315Z,66.32
2018-08-09T09:43:28.745Z,66.39
2018-08-09T09:45:56.376Z,66.59
2018-08-09T09:48:23.874Z,65.80
2018-08-09T09:50:51.301Z,65.32
2018-08-09T09:53:18.996Z,64.54
2018-08-09T09:55:46.480Z,64.24
2018-08-09T09:58:14.010Z,63.14
2018-08-09T10:00:47.120Z,62.40
2018-08-09T10:03:14.641Z,62.12
2018-08-09T10:05:42.125Z,62.09
2018-08-09T10:08:09.574Z,61.41
2018-08-09T10:10:37.186Z,61.32
2018-08-09T10:13:04.674Z,60.41
2018-08-09T10:15:32.236Z,60.15
2018-08-09T10:17:59.854Z,60.13
2018-08-09T10:20:27.259Z,59.83
2018-08-09T10:22:54.713Z,58.57
2018-08-09T10:25:22.432Z,58.11
2018-08-09T10:27:49.863Z,58.34
2018-08-09T10:30:17.273Z,57.63
2018-08-09T10:32:44.985Z,57.66
2018-08-09T10:35:12.437Z,57.66
2018-08-09T10:37:39.870Z,56.91
2018-08-09T10:40:07.605Z,56.12
2018-08-09T10:42:35.296Z,56.62
2018-08-09T10:45:02.836Z,55.64
2018-08-09T10:47:30.682Z,55.75
2018-08-09T10:49:58.174Z,55.94
2018-08-09T10:52:25.678Z,55.36
2018-08-09T10:54:53.289Z,54.56
2018-08-09T10:57:20.790Z,54.89
2018-08-09T10:59:48.255Z,54.10
2018-08-09T11:02:15.821Z,54.40
2018-08-09T11:04:43.264Z,54.26
2018-08-09T11:07:10.846Z,54.08
2018-08-09T11:09:38.555Z,53.89
2018-08-09T11:12:06.073Z,53.91
2018-08-09T11:14:33.556Z,53.74
2018-08-09T11:17:01.356Z,53.58
2018-08-09T11:19:28.839Z,53.33
2018-08-09T11:21:56.233Z,52.48
2018-08-09T11:24:23.923Z,52.82
2018-08-09T11:26:51.463Z,52.52
2018-08-09T11:29:18.914Z,52.49
2018-08-09T11:31:47.479Z,51.55
2018-08-09T11:34:14.952Z,51.68
2018-08-09T11:36:42.441Z,52.05
2018-08-09T11:39:11.586Z,52.16
2018-08-09T11:41:39.046Z,50.66
2018-08-09T11:44:07.034Z,50.58
2018-08-09T11:46:34.654Z,50.56
2018-08-09T11:49:02.099Z,50.42
2018-08-09T11:51:29.524Z,50.69
2018-08-09T11:53:57.199Z,50.17
2018-08-09T11:56:24.684Z,50.96
2018-08-09T11:58:52.220Z,50.98
2018-08-09T12:01:19.923Z,50.57
2018-08-09T12:03:47.527Z,50.62
2018-08-09T12:06:15.028Z,50.79
2018-08-09T12:08:42.596Z,51.10
2018-08-09T12:11:10.146Z,50.93
2018-08-09T12:13:37.766Z,50.56
2018-08-09T12:16:05.474Z,50.19
2018-08-09T12:18:32.959Z,50.23
2018-08-09T12:21:00.689Z,49.71
2018-08-09T12:23:28.276Z,49.45
2018-08-09T12:25:55.822Z,49.34
2018-08-09T12:28:23.351Z,49.25
2018-08-09T12:30:51.115Z,49.86
2018-08-09T12:36:49.132Z,49.47
2018-08-09T12:39:16.676Z,50.17
2018-08-09T12:41:44.251Z,50.38
2018-08-09T12:44:12.134Z,50.05
2018-08-09T12:46:39.699Z,50.91
2018-08-09T12:49:07.307Z,51.28
2018-08-09T12:51:34.967Z,51.53
2018-08-09T12:54:33.054Z,51.15
2018-08-09T12:57:00.814Z,50.69
2018-08-09T12:59:28.296Z,50.29
2018-08-09T13:01:55.932Z,49.83
2018-08-09T13:04:23.710Z,50.10
2018-08-09T13:06:51.247Z,49.68
2018-08-09T13:09:18.748Z,49.34
2018-08-09T13:11:46.451Z,49.25
2018-08-09T13:14:14.036Z,50.34
2018-08-09T13:16:41.490Z,49.80
2018-08-09T13:19:09.151Z,49.80
2018-08-09T13:21:36.644Z,49.70
2018-08-09T13:24:04.155Z,49.63
2018-08-09T13:26:31.846Z,49.59
2018-08-09T13:28:59.366Z,50.30
2018-08-09T13:31:27.209Z,50.03
2018-08-09T13:33:54.985Z,49.84
2018-08-09T13:36:22.574Z,50.49
2018-08-09T13:38:50.132Z,50.62
2018-08-09T13:41:17.971Z,50.75
2018-08-09T13:43:45.774Z,50.89
2018-08-09T13:46:13.435Z,51.44
2018-08-09T13:48:41.128Z,51.70
2018-08-09T13:51:08.932Z,51.18
2018-08-09T13:53:36.415Z,51.66
2018-08-09T13:56:04.550Z,52.37
2018-08-09T13:58:32.143Z,51.97
2018-08-09T14:00:59.631Z,51.18
2018-08-09T14:03:27.371Z,51.71
2018-08-09T14:05:54.842Z,51.40
2018-08-09T14:08:22.333Z,51.99
2018-08-09T14:10:50.200Z,51.70
2018-08-09T14:13:17.654Z,51.64
2018-08-09T14:15:45.223Z,51.51
2018-08-09T14:18:12.892Z,51.75
2018-08-09T14:20:40.392Z,51.75
2018-08-09T14:23:07.896Z,52.08
2018-08-09T14:25:35.708Z,52.07
2018-08-09T14:30:37.609Z,52.53
2018-08-09T14:33:05.763Z,52.60
2018-08-09T14:35:33.256Z,52.77
2018-08-09T14:38:01.022Z,52.90
2018-08-09T14:40:28.500Z,52.75
2018-08-09T14:42:56.065Z,52.41
2018-08-09T14:45:23.774Z,52.47
2018-08-09T14:47:51.359Z,53.32
2018-08-09T14:50:18.919Z,53.23
2018-08-09T14:52:46.533Z,52.61
2018-08-09T14:55:14.994Z,52.88
2018-08-09T14:57:42.678Z,53.39
2018-08-09T15:00:14.277Z,53.16
2018-08-09T15:02:41.929Z,53.21
2018-08-09T15:05:09.432Z,53.32
2018-08-09T15:07:37.090Z,53.18
2018-08-09T15:10:04.991Z,53.08
2018-08-09T15:12:32.568Z,52.31
2018-08-09T15:15:00.211Z,52.77
2018-08-09T15:17:27.730Z,52.94
2018-08-09T15:19:55.186Z,52.50
2018-08-09T15:22:23.097Z,52.26
2018-08-09T15:24:50.654Z,52.81
2018-08-09T15:27:18.113Z,52.71
2018-08-09T15:29:45.815Z,53.00
2018-08-09T15:32:13.398Z,53.08
2018-08-09T15:34:40.911Z,53.21
2018-08-09T15:37:08.585Z,52.99
2018-08-09T15:39:36.101Z,53.09
2018-08-09T15:42:03.643Z,52.42
2018-08-09T15:44:31.614Z,53.21
2018-08-09T15:46:59.194Z,52.68
2018-08-09T15:49:26.818Z,52.95
2018-08-09T15:51:54.538Z,53.17
2018-08-09T15:54:22.094Z,52.81
2018-08-09T15:56:49.628Z,53.02
2018-08-09T15:59:17.395Z,52.83
2018-08-09T16:01:44.917Z,52.81
2018-08-09T16:04:12.507Z,52.26
2018-08-09T16:06:40.009Z,52.18
2018-08-09T16:09:13.515Z,52.24
2018-08-09T16:11:41.232Z,52.94
2018-08-09T16:14:08.813Z,52.90
2018-08-09T16:16:36.397Z,53.09
2018-08-09T16:19:04.204Z,53.05
2018-08-09T16:21:31.969Z,52.57
2018-08-09T16:23:59.522Z,53.12
2018-08-09T16:26:27.227Z,53.20
2018-08-09T16:28:54.805Z,53.23
2018-08-09T16:31:22.285Z,53.43
2018-08-09T16:33:50.017Z,53.56
2018-08-09T16:36:17.524Z,53.32
2018-08-09T16:38:45.035Z,53.74
2018-08-09T16:41:12.832Z,53.70
2018-08-09T16:43:40.445Z,53.75
2018-08-09T16:46:07.987Z,53.90
2018-08-09T16:48:36.108Z,53.90
2018-08-09T16:51:03.939Z,53.52
2018-08-09T16:53:31.376Z,53.55
2018-08-09T16:55:59.038Z,53.98
2018-08-09T16:58:26.608Z,53.35
2018-08-09T17:00:54.268Z,53.89
2018-08-09T17:03:21.915Z,53.40
2018-08-09T17:05:49.460Z,54.30
2018-08-09T17:08:17.017Z,54.27
2018-08-09T17:10:44.778Z,53.97
2018-08-09T17:13:12.213Z,53.93
2018-08-09T17:15:39.767Z,54.36
2018-08-09T17:18:07.521Z,53.83
2018-08-09T17:20:35.049Z,54.01
2018-08-09T17:23:03.661Z,54.17
2018-08-09T17:25:31.565Z,54.19
2018-08-09T17:27:59.149Z,54.85
2018-08-09T17:30:27.636Z,54.85
2018-08-09T17:32:56.035Z,54.38
2018-08-09T17:35:23.642Z,54.71
2018-08-09T17:37:51.417Z,54.96
2018-08-09T17:40:24.773Z,55.60
2018-08-09T17:42:53.045Z,54.93
2018-08-09T17:45:23.149Z,55.18
2018-08-09T17:47:50.938Z,55.14
2018-08-09T17:50:18.567Z,55.71
2018-08-09T17:52:46.377Z,55.74
2018-08-09T17:55:14.589Z,55.80
2018-08-09T17:57:42.916Z,55.70
2018-08-09T18:00:15.483Z,55.87
2018-08-09T18:02:43.084Z,56.19
2018-08-09T18:05:10.806Z,56.30
2018-08-09T18:07:38.617Z,57.13
2018-08-09T18:10:11.187Z,57.03
2018-08-09T18:12:38.765Z,57.46
2018-08-09T18:15:06.648Z,57.76
2018-08-09T18:17:34.229Z,58.59
2018-08-09T18:20:01.656Z,58.72
2018-08-09T18:22:29.360Z,58.75
2018-08-09T18:24:57.128Z,58.84
2018-08-09T18:27:24.613Z,58.67
2018-08-09T18:29:52.239Z,59.32
2018-08-09T18:32:19.755Z,59.20
2018-08-09T18:34:47.210Z,59.96
2018-08-09T18:37:14.824Z,59.79
2018-08-09T18:39:42.293Z,60.51
2018-08-09T18:42:09.908Z,60.70
2018-08-09T18:44:37.487Z,60.35
2018-08-09T18:47:04.993Z,60.53
2018-08-09T18:49:32.541Z,61.13
2018-08-09T18:52:00.130Z,61.75
2018-08-09T18:54:27.744Z,61.63
2018-08-09T18:56:55.268Z,61.75
2018-08-09T18:59:23.007Z,61.88
2018-08-09T19:01:50.519Z,61.97
2018-08-09T19:04:18.104Z,62.09
2018-08-09T19:06:45.740Z,62.85
2018-08-09T19:09:13.282Z,63.11
2018-08-09T19:11:40.737Z,62.81
2018-08-09T19:14:08.402Z,63.63
2018-08-09T19:16:36.128Z,63.65
2018-08-09T19:19:03.777Z,64.02
2018-08-09T19:21:31.392Z,63.72
2018-08-09T19:23:58.997Z,63.82
2018-08-09T19:26:26.565Z,64.56
2018-08-09T19:28:54.241Z,64.77
2018-08-09T19:31:21.777Z,64.73
2018-08-09T19:33:49.227Z,64.81
2018-08-09T19:36:16.905Z,64.98
2018-08-09T19:38:44.663Z,65.28
2018-08-09T19:41:12.102Z,65.45
2018-08-09T19:43:39.836Z,65.74
2018-08-09T19:46:07.429Z,65.80
2018-08-09T19:48:34.953Z,66.19
2018-08-09T19:51:02.647Z,65.82
2018-08-09T19:53:30.162Z,66.45
2018-08-09T19:58:24.749Z,66.22
2018-08-09T20:00:52.276Z,66.11
2018-08-09T20:03:19.857Z,66.38
2018-08-09T20:05:47.471Z,66.99
2018-08-09T20:08:14.950Z,67.11
2018-08-09T20:10:42.423Z,66.96
2018-08-09T20:13:10.000Z,67.43
2018-08-09T20:15:37.504Z,67.01
2018-08-09T20:18:05.150Z,67.28
2018-08-09T20:20:32.795Z,67.71
2018-08-09T20:23:00.325Z,67.70
2018-08-09T20:25:27.855Z,67.40
2018-08-09T20:27:55.511Z,67.79
2018-08-09T20:30:23.012Z,68.22
2018-08-09T20:32:50.514Z,67.73
2018-08-09T20:35:19.692Z,67.87
2018-08-09T20:37:47.620Z,68.44
2018-08-09T20:40:15.826Z,68.60
2018-08-09T20:42:43.921Z,68.34
2018-08-09T20:45:12.975Z,68.43
2018-08-09T20:47:40.539Z,68.57
2018-08-09T20:50:10.418Z,68.67
2018-08-09T20:52:38.410Z,69.26
2018-08-09T20:55:06.555Z,69.15
2018-08-09T20:57:34.434Z,68.94
2018-08-09T21:00:02.013Z,69.58
2018-08-09T21:02:29.490Z,69.31
2018-08-09T21:04:57.285Z,69.69
2018-08-09T21:07:24.832Z,69.32
2018-08-09T21:09:52.330Z,69.41
2018-08-09T21:12:19.976Z,69.62
2018-08-09T21:14:47.531Z,69.83
2018-08-09T21:17:15.105Z,70.16
2018-08-09T21:19:42.763Z,70.24
2018-08-09T21:22:10.213Z,70.37
2018-08-09T21:24:37.725Z,70.89
2018-08-09T21:27:05.349Z,71.00
2018-08-09T21:29:32.894Z,71.24
2018-08-09T21:32:00.371Z,71.22
2018-08-09T21:34:28.058Z,70.99
2018-08-09T21:36:55.619Z,70.83
2018-08-09T21:39:23.090Z,71.32
2018-08-09T21:41:50.878Z,71.07
2018-08-09T21:44:18.464Z,71.35
2018-08-09T21:46:45.928Z,71.20
2018-08-09T21:49:13.572Z,71.74
2018-08-09T21:51:41.081Z,71.47
2018-08-09T21:54:08.519Z,71.93
2018-08-09T21:56:36.304Z,71.77
2018-08-09T21:59:04.147Z,71.74
2018-08-09T22:01:31.697Z,72.05
2018-08-09T22:03:59.453Z,71.88
2018-08-09T22:06:32.502Z,71.85
2018-08-09T22:09:05.568Z,72.10
2018-08-09T22:11:38.596Z,72.29
2018-08-09T22:14:11.571Z,72.06
2018-08-09T22:16:44.696Z,72.58
2018-08-09T22:19:17.832Z,72.12
2018-08-09T22:21:51.185Z,72.73
2018-08-09T22:24:18.887Z,72.45
2018-08-09T22:26:46.374Z,72.68
2018-08-09T22:29:13.893Z,73.00
2018-08-09T22:31:41.581Z,72.45
2018-08-09T22:34:09.537Z,72.84
2018-08-09T22:36:37.059Z,73.14
2018-08-09T22:39:07.485Z,73.00
2018-08-09T22:41:34.973Z,73.25
2018-08-09T22:44:02.810Z,73.39
2018-08-09T22:46:30.480Z,73.17
2018-08-09T22:48:58.000Z,73.48
2018-08-09T22:51:25.533Z,73.61
2018-08-09T22:53:53.210Z,73.23
2018-08-09T22:56:20.768Z,73.51
2018-08-09T22:58:48.289Z,73.97
2018-08-09T23:01:16.239Z,73.92
2018-08-09T23:03:43.898Z,73.56
2018-08-09T23:06:11.502Z,73.96
2018-08-09T23:08:39.264Z,73.85
2018-08-09T23:11:07.158Z,73.95
2018-08-09T23:13:34.691Z,73.93
2018-08-09T23:16:02.403Z,73.37
2018-08-09T23:18:30.017Z,73.78
2018-08-09T23:20:57.480Z,73.46
2018-08-09T23:23:25.151Z,73.46
2018-08-09T23:25:52.670Z,73.54
2018-08-09T23:28:20.202Z,73.58
2018-08-09T23:30:48.024Z,73.57
2018-08-09T23:33:18.523Z,73.65
2018-08-09T23:35:46.012Z,74.23
2018-08-09T23:38:13.744Z,74.27
2018-08-09T23:40:41.286Z,74.21
2018-08-09T23:43:08.876Z,74.11
2018-08-09T23:45:36.604Z,73.77
2018-08-09T23:48:04.308Z,74.25
2018-08-09T23:50:31.835Z,74.12
2018-08-09T23:52:59.575Z,74.07
2018-08-09T23:55:27.076Z,74.26
2018-08-09T23:57:54.569Z,74.38
